createdAt,value
2022-09-03T00:00:13.599Z,99161.90
2022-09-03T00:02:24.271Z,99163.38
2022-09-03T00:04:39.466Z,99160.07
2022-09-03T00:06:50.187Z,99160.52
2022-09-03T00:09:01.079Z,99163.66
2022-09-03T00:11:11.584Z,99164.43
2022-09-03T00:13:22.767Z,99166.98
2022-09-03T00:15:29.603Z,99165.41
2022-09-03T00:17:38.273Z,99163.36
2022-09-03T00:19:48.440Z,99160.20
2022-09-03T00:21:58.902Z,99165.20
2022-09-03T00:24:07.664Z,99161.75
2022-09-03T00:26:28.313Z,99166.02
2022-09-03T00:28:40.586Z,99172.58
2022-09-03T00:30:51.304Z,99168.20
2022-09-03T00:32:59.656Z,99171.35
2022-09-03T00:35:11.180Z,99170.81
2022-09-03T00:37:16.055Z,99169.47
2022-09-03T00:39:24.713Z,99169.91
2022-09-03T00:41:37.223Z,99169.14
2022-09-03T00:43:56.359Z,99169.28
2022-09-03T00:46:13.824Z,99173.16
2022-09-03T00:48:28.088Z,99172.91
2022-09-03T00:50:45.379Z,99173.46
2022-09-03T00:53:00.679Z,99173.79
2022-09-03T00:55:16.847Z,99175.75
2022-09-03T00:57:35.431Z,99174.73
2022-09-03T00:59:50.611Z,99172.39
2022-09-03T01:02:07.415Z,99170.04
2022-09-03T01:04:31.481Z,99167.41
2022-09-03T01:06:43.608Z,99172.94
2022-09-03T01:09:06.919Z,99176.67
2022-09-03T01:11:24.715Z,99178.50
2022-09-03T01:13:36.627Z,99183.38
2022-09-03T01:15:57.222Z,99187.38
2022-09-03T01:18:23.865Z,99191.41
2022-09-03T01:20:50.406Z,99191.73
2022-09-03T01:23:35.297Z,99195.77
2022-09-03T01:25:52.165Z,99199.98
2022-09-03T01:28:23.153Z,99199.55
2022-09-03T01:30:31.654Z,99201.08
2022-09-03T01:32:43.567Z,99199.99
2022-09-03T01:34:57.313Z,99194.61
2022-09-03T01:37:14.859Z,99188.77
2022-09-03T01:39:30.673Z,99184.30
2022-09-03T01:41:48.127Z,99184.60
2022-09-03T01:44:00.517Z,99179.03
2022-09-03T01:46:13.574Z,99179.56
2022-09-03T01:48:41.279Z,99181.77
2022-09-03T01:50:51.963Z,99181.73
2022-09-03T01:53:05.673Z,99183.52
2022-09-03T01:55:25.665Z,99179.40
2022-09-03T01:57:48.284Z,99178.64
2022-09-03T01:59:59.993Z,99178.54
2022-09-03T02:02:10.211Z,99174.85
2022-09-03T02:04:21.527Z,99175.88
2022-09-03T02:06:30.667Z,99173.87
2022-09-03T02:08:35.444Z,99174.39
2022-09-03T02:10:43.983Z,99174.83
2022-09-03T02:12:53.805Z,99175.61
2022-09-03T02:14:58.918Z,99175.73
2022-09-03T02:17:06.147Z,99177.71
2022-09-03T02:19:14.864Z,99179.66
2022-09-03T02:21:22.685Z,99183.58
2022-09-03T02:23:28.656Z,99179.14
2022-09-03T02:25:36.886Z,99178.41
2022-09-03T02:27:42.897Z,99174.42
2022-09-03T02:29:48.535Z,99176.77
2022-09-03T02:31:53.483Z,99171.27
2022-09-03T02:33:58.762Z,99168.83
2022-09-03T02:36:07.087Z,99172.39
2022-09-03T02:38:14.343Z,99173.87
2022-09-03T02:40:20.314Z,99175.88
2022-09-03T02:42:25.105Z,99177.71
2022-09-03T02:44:33.288Z,99179.19
2022-09-03T02:46:43.488Z,99180.58
2022-09-03T02:48:48.518Z,99180.27
2022-09-03T02:50:53.453Z,99179.51
2022-09-03T02:52:59.523Z,99180.86
2022-09-03T02:55:04.688Z,99175.05
2022-09-03T02:57:15.158Z,99172.85
2022-09-03T02:59:20.066Z,99173.02
2022-09-03T03:01:26.270Z,99169.66
2022-09-03T03:03:31.457Z,99173.65
2022-09-03T03:05:43.444Z,99172.44
2022-09-03T03:07:48.291Z,99170.41
2022-09-03T03:09:57.533Z,99171.59
2022-09-03T03:12:02.939Z,99176.86
2022-09-03T03:14:08.041Z,99176.65
2022-09-03T03:16:14.885Z,99179.51
2022-09-03T03:18:19.650Z,99178.06
2022-09-03T03:20:25.166Z,99174.64
2022-09-03T03:22:31.345Z,99174.34
2022-09-03T03:24:36.130Z,99176.15
2022-09-03T03:26:41.039Z,99177.37
2022-09-03T03:28:46.596Z,99180.45
2022-09-03T03:30:51.534Z,99174.73
2022-09-03T03:32:57.570Z,99171.75
2022-09-03T03:35:02.484Z,99173.68
2022-09-03T03:37:07.302Z,99173.04
2022-09-03T03:39:13.392Z,99173.94
2022-09-03T03:41:20.598Z,99169.23
2022-09-03T03:43:28.031Z,99169.48
2022-09-03T03:45:32.886Z,99173.70
2022-09-03T03:47:37.791Z,99178.58
2022-09-03T03:49:42.658Z,99175.94
2022-09-03T03:51:50.542Z,99175.65
2022-09-03T03:53:59.366Z,99178.99
2022-09-03T03:56:09.873Z,99181.77
2022-09-03T03:58:14.630Z,99186.43
2022-09-03T04:00:19.901Z,99185.93
2022-09-03T04:02:26.380Z,99186.09
2022-09-03T04:04:31.338Z,99193.79
2022-09-03T04:06:36.277Z,99194.52
2022-09-03T04:08:45.914Z,99191.66
2022-09-03T04:10:51.538Z,99198.59
2022-09-03T04:12:57.263Z,99196.77
2022-09-03T04:15:02.116Z,99199.70
2022-09-03T04:17:07.114Z,99199.92
2022-09-03T04:19:11.998Z,99199.55
2022-09-03T04:21:22.762Z,99201.39
2022-09-03T04:23:31.820Z,99196.02
2022-09-03T04:25:36.825Z,99194.22
2022-09-03T04:27:41.875Z,99198.80
2022-09-03T04:29:49.206Z,99199.51
2022-09-03T04:31:56.830Z,99203.39
2022-09-03T04:34:02.235Z,99203.98
2022-09-03T04:36:09.820Z,99203.83
2022-09-03T04:38:18.048Z,99207.25
2022-09-03T04:40:23.053Z,99208.67
2022-09-03T04:42:32.023Z,99203.85
2022-09-03T04:44:37.317Z,99200.98
2022-09-03T04:46:42.238Z,99201.60
2022-09-03T04:48:50.385Z,99200.15
2022-09-03T04:50:55.582Z,99203.48
2022-09-03T04:53:08.094Z,99202.91
2022-09-03T04:55:13.685Z,99206.92
2022-09-03T04:57:18.711Z,99207.98
2022-09-03T04:59:23.592Z,99215.21
2022-09-03T05:01:29.895Z,99216.25
2022-09-03T05:03:35.369Z,99211.61
2022-09-03T05:05:40.206Z,99206.27
2022-09-03T05:07:44.974Z,99202.45
2022-09-03T05:09:49.769Z,99205.38
2022-09-03T05:11:57.404Z,99206.44
2022-09-03T05:14:05.167Z,99207.11
2022-09-03T05:16:14.738Z,99209.85
2022-09-03T05:18:19.606Z,99213.98
2022-09-03T05:20:24.712Z,99212.83
2022-09-03T05:22:29.732Z,99213.67
2022-09-03T05:24:34.828Z,99211.59
2022-09-03T05:26:40.732Z,99212.05
2022-09-03T05:28:46.427Z,99212.79
2022-09-03T05:31:00.521Z,99214.48
2022-09-03T05:33:11.427Z,99211.16
2022-09-03T05:35:16.455Z,99208.86
2022-09-03T05:37:22.559Z,99208.04
2022-09-03T05:39:27.455Z,99206.56
2022-09-03T05:41:32.436Z,99206.70
2022-09-03T05:43:38.631Z,99205.63
2022-09-03T05:45:43.522Z,99205.27
2022-09-03T05:47:48.759Z,99200.14
2022-09-03T05:49:53.686Z,99203.35
2022-09-03T05:51:58.679Z,99200.56
2022-09-03T05:54:04.145Z,99201.40
2022-09-03T05:56:10.591Z,99199.41
2022-09-03T05:58:15.509Z,99199.24
2022-09-03T06:00:20.895Z,99202.30
2022-09-03T06:02:25.819Z,99198.08
2022-09-03T06:04:30.691Z,99198.45
2022-09-03T06:06:37.255Z,99194.97
2022-09-03T06:08:47.324Z,99199.84
2022-09-03T06:10:57.747Z,99201.55
2022-09-03T06:13:02.454Z,99197.63
2022-09-03T06:15:09.084Z,99200.79
2022-09-03T06:17:14.840Z,99201.48
2022-09-03T06:19:20.685Z,99201.59
2022-09-03T06:21:25.582Z,99196.13
2022-09-03T06:23:31.197Z,99193.52
2022-09-03T06:25:36.687Z,99193.64
2022-09-03T06:27:41.702Z,99195.86
2022-09-03T06:29:46.790Z,99194.15
2022-09-03T06:31:54.547Z,99198.61
2022-09-03T06:34:03.834Z,99196.29
2022-09-03T06:36:12.020Z,99196.92
2022-09-03T06:38:16.855Z,99197.02
2022-09-03T06:40:21.852Z,99199.10
2022-09-03T06:42:27.055Z,99198.13
2022-09-03T06:44:32.017Z,99201.84
2022-09-03T06:46:38.206Z,99199.71
2022-09-03T06:48:45.750Z,99201.11
2022-09-03T06:51:02.722Z,99197.96
2022-09-03T06:53:07.593Z,99189.88
2022-09-03T06:55:13.898Z,99185.55
2022-09-03T06:57:18.675Z,99183.88
2022-09-03T06:59:26.207Z,99186.58
2022-09-03T07:01:33.194Z,99193.02
2022-09-03T07:03:39.784Z,99193.75
2022-09-03T07:05:44.749Z,99198.70
2022-09-03T07:07:50.607Z,99200.13
2022-09-03T07:09:55.432Z,99206.36
2022-09-03T07:12:00.646Z,99201.48
2022-09-03T07:14:06.981Z,99203.71
2022-09-03T07:16:14.292Z,99197.63
2022-09-03T07:18:19.250Z,99197.14
2022-09-03T07:20:24.219Z,99198.66
2022-09-03T07:22:31.318Z,99195.91
2022-09-03T07:24:37.319Z,99193.64
2022-09-03T07:26:42.948Z,99191.30
2022-09-03T07:28:51.409Z,99191.36
2022-09-03T07:31:03.592Z,99196.88
2022-09-03T07:33:08.554Z,99197.10
2022-09-03T07:35:16.338Z,99200.23
2022-09-03T07:37:21.271Z,99198.81
2022-09-03T07:39:26.247Z,99198.30
2022-09-03T07:41:31.333Z,99200.52
2022-09-03T07:43:38.702Z,99195.86
2022-09-03T07:45:50.131Z,99197.95
2022-09-03T07:47:55.125Z,99194.41
2022-09-03T07:49:59.992Z,99196.48
2022-09-03T07:52:05.400Z,99197.42
2022-09-03T07:54:11.880Z,99192.70
2022-09-03T07:56:17.456Z,99189.20
2022-09-03T07:58:22.393Z,99191.92
2022-09-03T08:00:28.662Z,99191.63
2022-09-03T08:02:34.040Z,99193.41
2022-09-03T08:04:38.997Z,99195.67
2022-09-03T08:06:50.167Z,99198.80
2022-09-03T08:09:05.113Z,99197.50
2022-09-03T08:11:15.614Z,99195.41
2022-09-03T08:13:20.471Z,99192.15
2022-09-03T08:15:25.903Z,99190.66
2022-09-03T08:17:30.826Z,99188.45
2022-09-03T08:19:35.696Z,99189.46
2022-09-03T08:21:41.975Z,99187.41
2022-09-03T08:23:48.646Z,99185.95
2022-09-03T08:26:00.131Z,99182.80
2022-09-03T08:28:06.303Z,99184.85
2022-09-03T08:30:12.240Z,99186.22
2022-09-03T08:32:17.482Z,99180.98
2022-09-03T08:34:22.327Z,99181.33
2022-09-03T08:36:28.600Z,99178.50
2022-09-03T08:38:34.920Z,99174.50
2022-09-03T08:40:40.195Z,99175.45
2022-09-03T08:42:58.208Z,99174.12
2022-09-03T08:45:06.422Z,99175.02
2022-09-03T08:47:15.453Z,99167.61
2022-09-03T08:49:27.191Z,99167.71
2022-09-03T08:51:35.817Z,99163.89
2022-09-03T08:53:46.266Z,99165.38
2022-09-03T08:55:55.495Z,99159.48
2022-09-03T08:58:06.723Z,99153.45
2022-09-03T09:00:15.945Z,99158.40
2022-09-03T09:02:35.764Z,99162.13
2022-09-03T09:04:55.229Z,99162.02
2022-09-03T09:07:06.954Z,99156.64
2022-09-03T09:09:23.755Z,99162.83
2022-09-03T09:11:40.828Z,99160.61
2022-09-03T09:13:54.187Z,99156.75
2022-09-03T09:16:10.563Z,99157.52
2022-09-03T09:18:26.273Z,99154.64
2022-09-03T09:20:39.023Z,99160.10
2022-09-03T09:22:48.239Z,99163.88
2022-09-03T09:24:57.330Z,99161.45
2022-09-03T09:27:05.116Z,99156.08
2022-09-03T09:29:11.393Z,99150.70
2022-09-03T09:31:17.797Z,99143.94
2022-09-03T09:33:23.773Z,99143.80
2022-09-03T09:35:28.655Z,99144.16
2022-09-03T09:37:33.524Z,99146.45
2022-09-03T09:39:53.597Z,99149.30
2022-09-03T09:42:02.607Z,99148.19
2022-09-03T09:44:07.615Z,99145.36
2022-09-03T09:46:15.640Z,99148.46
2022-09-03T09:48:26.189Z,99150.51
2022-09-03T09:50:31.328Z,99147.39
2022-09-03T09:52:36.144Z,99143.35
2022-09-03T09:54:42.522Z,99136.77
2022-09-03T09:56:58.245Z,99134.55
2022-09-03T09:59:08.809Z,99130.02
2022-09-03T10:01:18.719Z,99128.79
2022-09-03T10:03:23.468Z,99128.36
2022-09-03T10:05:31.467Z,99127.31
2022-09-03T10:07:36.245Z,99130.36
2022-09-03T10:09:41.303Z,99130.67
2022-09-03T10:11:49.293Z,99129.63
2022-09-03T10:13:55.864Z,99125.83
2022-09-03T10:16:07.200Z,99128.77
2022-09-03T10:18:23.243Z,99132.04
2022-09-03T10:20:37.021Z,99128.77
2022-09-03T10:22:56.899Z,99131.98
2022-09-03T10:25:05.183Z,99139.33
2022-09-03T10:27:12.595Z,99140.14
2022-09-03T10:29:25.282Z,99135.11
2022-09-03T10:31:47.494Z,99132.56
2022-09-03T10:33:59.129Z,99132.39
2022-09-03T10:36:17.944Z,99128.17
2022-09-03T10:38:32.455Z,99124.85
2022-09-03T10:40:42.510Z,99123.27
2022-09-03T10:42:55.797Z,99118.25
2022-09-03T10:45:16.530Z,99117.23
2022-09-03T10:47:38.896Z,99105.97
2022-09-03T10:49:54.273Z,99109.00
2022-09-03T10:52:08.180Z,99104.42
2022-09-03T10:54:30.830Z,99103.90
2022-09-03T10:56:44.751Z,99100.95
2022-09-03T10:59:17.522Z,99105.52
2022-09-03T11:01:28.233Z,99113.38
2022-09-03T11:03:46.938Z,99116.20
2022-09-03T11:06:02.806Z,99107.11
2022-09-03T11:08:14.254Z,99106.15
2022-09-03T11:10:22.726Z,99103.36
2022-09-03T11:12:34.652Z,99105.69
2022-09-03T11:14:45.253Z,99103.05
2022-09-03T11:16:54.225Z,99099.89
2022-09-03T11:19:02.679Z,99098.10
2022-09-03T11:21:12.596Z,99097.57
2022-09-03T11:23:19.191Z,99097.35
2022-09-03T11:25:30.431Z,99096.47
2022-09-03T11:27:53.390Z,99095.17
2022-09-03T11:30:05.287Z,99095.40
2022-09-03T11:32:18.246Z,99093.30
2022-09-03T11:34:32.930Z,99091.62
2022-09-03T11:36:45.905Z,99091.08
2022-09-03T11:38:52.805Z,99090.02
2022-09-03T11:41:04.581Z,99084.48
2022-09-03T11:43:14.391Z,99086.68
2022-09-03T11:45:40.213Z,99087.09
2022-09-03T11:47:46.299Z,99081.11
2022-09-03T11:49:53.219Z,99074.52
2022-09-03T11:52:01.600Z,99074.92
2022-09-03T11:54:24.169Z,99077.85
2022-09-03T11:56:33.629Z,99073.21
2022-09-03T11:58:40.205Z,99076.22
2022-09-03T12:00:48.208Z,99073.05
2022-09-03T12:03:02.156Z,99073.68
2022-09-03T12:05:20.457Z,99074.35
2022-09-03T12:07:46.151Z,99073.87
2022-09-03T12:10:07.732Z,99075.23
2022-09-03T12:12:29.227Z,99078.81
2022-09-03T12:14:43.098Z,99081.90
2022-09-03T12:17:00.536Z,99085.14
2022-09-03T12:19:12.836Z,99082.75
2022-09-03T12:21:18.976Z,99082.23
2022-09-03T12:23:31.552Z,99072.89
2022-09-03T12:25:42.977Z,99074.44
2022-09-03T12:27:48.187Z,99076.60
2022-09-03T12:29:58.232Z,99077.29
2022-09-03T12:32:12.074Z,99076.08
2022-09-03T12:34:20.205Z,99070.86
2022-09-03T12:36:25.854Z,99074.09
2022-09-03T12:38:33.025Z,99075.81
2022-09-03T12:48:17.527Z,99067.76
2022-09-03T12:50:24.817Z,99065.82
2022-09-03T12:52:33.629Z,99063.11
2022-09-03T12:54:44.408Z,99061.10
2022-09-03T12:56:58.259Z,99061.99
2022-09-03T12:59:09.474Z,99060.56
2022-09-03T13:01:20.662Z,99060.48
2022-09-03T13:03:30.959Z,99056.72
2022-09-03T13:05:42.223Z,99060.46
2022-09-03T13:07:50.661Z,99056.21
2022-09-03T13:10:04.990Z,99052.83
2022-09-03T13:12:23.795Z,99054.04
2022-09-03T13:14:29.141Z,99049.98
2022-09-03T13:17:09.309Z,99050.16
2022-09-03T13:19:22.441Z,99045.08
2022-09-03T13:21:39.881Z,99046.11
2022-09-03T13:24:09.347Z,99040.44
2022-09-03T13:26:26.983Z,99042.27
2022-09-03T13:28:47.347Z,99040.66
2022-09-03T13:31:00.054Z,99042.14
2022-09-03T13:33:09.650Z,99037.79
2022-09-03T13:35:24.763Z,99036.05
2022-09-03T13:37:38.195Z,99029.83
2022-09-03T13:39:48.382Z,99025.38
2022-09-03T13:42:01.880Z,99025.59
2022-09-03T13:44:10.768Z,99020.77
2022-09-03T13:46:24.690Z,99023.61
2022-09-03T13:48:36.541Z,99024.38
2022-09-03T13:50:45.771Z,99022.35
2022-09-03T13:52:55.654Z,99019.45
2022-09-03T13:55:07.343Z,99017.45
2022-09-03T13:57:26.382Z,99017.71
2022-09-03T13:59:40.184Z,99010.77
2022-09-03T14:02:00.889Z,99008.52
2022-09-03T14:04:18.072Z,99012.02
2022-09-03T14:06:36.242Z,99007.19
2022-09-03T14:08:58.658Z,99011.08
2022-09-03T14:11:19.846Z,99014.60
2022-09-03T14:13:37.323Z,99008.64
2022-09-03T14:15:48.927Z,99005.02
2022-09-03T14:18:02.821Z,99007.73
2022-09-03T14:20:13.091Z,99008.17
2022-09-03T14:22:22.136Z,99007.10
2022-09-03T14:24:36.676Z,99006.63
2022-09-03T14:26:52.499Z,99008.89
2022-09-03T14:29:04.837Z,99006.42
2022-09-03T14:31:19.586Z,99008.76
2022-09-03T14:33:33.416Z,99014.65
2022-09-03T14:35:50.230Z,99011.08
2022-09-03T14:38:30.691Z,99012.70
2022-09-03T14:40:43.054Z,99013.98
2022-09-03T14:43:09.522Z,99010.13
2022-09-03T14:45:56.207Z,99003.95
2022-09-03T14:48:21.597Z,99000.46
2022-09-03T14:50:44.663Z,99000.29
2022-09-03T14:53:07.680Z,99003.48
2022-09-03T14:55:25.737Z,99002.98
2022-09-03T14:57:56.633Z,99001.88
2022-09-03T15:00:17.365Z,99004.38
2022-09-03T15:03:03.023Z,99011.04
2022-09-03T15:05:15.625Z,99006.91
2022-09-03T15:07:36.050Z,99003.42
2022-09-03T15:09:47.576Z,99001.73
2022-09-03T15:11:57.449Z,99005.38
2022-09-03T15:14:10.484Z,99012.67
2022-09-03T15:16:35.024Z,99008.80
2022-09-03T15:19:00.713Z,99006.70
2022-09-03T15:21:17.061Z,99007.88
2022-09-03T15:23:49.173Z,99008.84
2022-09-03T15:26:23.612Z,99004.39
2022-09-03T15:28:38.538Z,99006.84
2022-09-03T15:30:50.511Z,99004.77
2022-09-03T15:33:06.755Z,99008.23
2022-09-03T15:35:16.566Z,99004.41
2022-09-03T15:37:27.298Z,99004.77
2022-09-03T15:39:36.020Z,99003.19
2022-09-03T15:41:49.640Z,99007.31
2022-09-03T15:44:01.006Z,99006.36
2022-09-03T15:46:09.791Z,99007.37
2022-09-03T15:48:27.381Z,99008.02
2022-09-03T15:50:47.705Z,99002.42
2022-09-03T15:52:59.886Z,98997.13
2022-09-03T15:55:11.053Z,98993.20
2022-09-03T15:57:21.699Z,98996.95
2022-09-03T15:59:32.622Z,99001.66
2022-09-03T16:01:46.008Z,99002.08
2022-09-03T16:04:01.427Z,99004.75
2022-09-03T16:06:18.433Z,99003.87
2022-09-03T16:08:28.490Z,99008.23
2022-09-03T16:10:48.046Z,99016.73
2022-09-03T16:13:01.193Z,99018.50
2022-09-03T16:15:10.763Z,99018.97
2022-09-03T16:17:26.081Z,99023.11
2022-09-03T16:19:36.766Z,99024.81
2022-09-03T16:21:51.853Z,99024.59
2022-09-03T16:23:59.598Z,99027.18
2022-09-03T16:26:09.379Z,99028.76
2022-09-03T16:28:19.133Z,99027.85
2022-09-03T16:30:43.665Z,99028.48
2022-09-03T16:33:01.012Z,99031.75
2022-09-03T16:35:17.081Z,99030.05
2022-09-03T16:37:27.433Z,99028.33
2022-09-03T16:39:42.467Z,99023.54
2022-09-03T16:41:57.467Z,99027.17
2022-09-03T16:44:12.328Z,99031.73
2022-09-03T16:46:33.694Z,99035.08
2022-09-03T16:48:50.592Z,99031.08
2022-09-03T16:51:13.245Z,99035.34
2022-09-03T16:53:26.429Z,99035.60
2022-09-03T16:55:44.338Z,99034.46
2022-09-03T16:58:02.613Z,99031.27
2022-09-03T17:00:14.415Z,99032.88
2022-09-03T17:02:41.556Z,99034.83
2022-09-03T17:05:13.943Z,99032.08
2022-09-03T17:07:42.639Z,99028.98
2022-09-03T17:10:00.060Z,99036.02
2022-09-03T17:12:15.021Z,99035.59
2022-09-03T17:14:44.874Z,99039.08
2022-09-03T17:17:02.779Z,99040.56
2022-09-03T17:19:14.630Z,99047.98
2022-09-03T17:21:31.555Z,99050.27
2022-09-03T17:24:18.475Z,99050.21
2022-09-03T17:26:33.434Z,99047.73
2022-09-03T17:28:55.781Z,99046.01
2022-09-03T17:31:14.249Z,99047.23
2022-09-03T17:33:50.053Z,99045.39
2022-09-03T17:36:02.684Z,99042.57
2022-09-03T17:38:25.746Z,99042.42
2022-09-03T17:40:41.961Z,99041.17
2022-09-03T17:42:55.526Z,99041.65
2022-09-03T17:45:13.866Z,99040.91
2022-09-03T17:47:52.232Z,99043.14
2022-09-03T17:50:00.020Z,99050.52
2022-09-03T17:52:09.187Z,99050.18
2022-09-03T17:54:24.905Z,99054.08
2022-09-03T17:56:34.023Z,99056.52
2022-09-03T17:58:43.394Z,99055.80
2022-09-03T18:00:58.965Z,99055.95
2022-09-03T18:03:12.487Z,99057.95
2022-09-03T18:05:22.642Z,99058.77
2022-09-03T18:07:33.561Z,99061.45
2022-09-03T18:09:42.836Z,99064.35
2022-09-03T18:12:06.500Z,99063.42
2022-09-03T18:14:20.394Z,99069.19
2022-09-03T18:16:28.955Z,99069.02
2022-09-03T18:18:37.110Z,99079.41
2022-09-03T18:21:08.531Z,99079.98
2022-09-03T18:23:22.482Z,99083.31
2022-09-03T18:25:34.066Z,99084.70
2022-09-03T18:27:43.943Z,99085.75
2022-09-03T18:29:59.109Z,99087.67
2022-09-03T18:32:05.303Z,99087.34
2022-09-03T18:34:10.946Z,99087.66
2022-09-03T18:36:16.110Z,99091.46
2022-09-03T18:38:27.863Z,99092.23
2022-09-03T18:40:41.602Z,99093.86
2022-09-03T18:42:56.022Z,99095.63
2022-09-03T18:45:21.618Z,99095.27
2022-09-03T18:50:18.571Z,99100.66
2022-09-03T18:52:32.332Z,99104.05
2022-09-03T18:55:07.333Z,99102.02
2022-09-03T18:57:20.587Z,99104.26
2022-09-03T18:59:48.192Z,99104.39
2022-09-03T19:01:53.938Z,99102.95
2022-09-03T19:04:09.134Z,99107.58
2022-09-03T19:06:34.643Z,99101.84
2022-09-03T19:08:47.655Z,99101.30
2022-09-03T19:11:02.524Z,99099.80
2022-09-03T19:13:21.816Z,99098.70
2022-09-03T19:15:30.377Z,99100.09
2022-09-03T19:17:58.985Z,99100.59
2022-09-03T19:20:13.310Z,99097.76
2022-09-03T19:22:27.432Z,99097.08
2022-09-03T19:24:33.339Z,99098.05
2022-09-03T19:26:48.769Z,99098.38
2022-09-03T19:29:00.114Z,99101.23
2022-09-03T19:31:36.972Z,99100.55
2022-09-03T19:33:52.360Z,99101.93
2022-09-03T19:36:07.169Z,99104.79
2022-09-03T19:38:22.008Z,99110.02
2022-09-03T19:40:42.601Z,99108.80
2022-09-03T19:42:59.894Z,99113.93
2022-09-03T19:45:15.988Z,99115.60
2022-09-03T19:47:33.788Z,99117.28
2022-09-03T19:49:51.607Z,99124.24
2022-09-03T19:52:04.692Z,99123.40
2022-09-03T19:54:10.710Z,99128.58
2022-09-03T19:56:23.129Z,99135.98
2022-09-03T19:58:43.167Z,99135.35
2022-09-03T20:00:49.877Z,99138.27
2022-09-03T20:02:55.556Z,99137.74
2022-09-03T20:05:03.117Z,99139.05
2022-09-03T20:07:11.201Z,99143.47
2022-09-03T20:09:20.971Z,99143.76
2022-09-03T20:11:29.608Z,99142.27
2022-09-03T20:13:39.327Z,99141.02
2022-09-03T20:15:57.607Z,99137.00
2022-09-03T20:18:09.337Z,99141.57
2022-09-03T20:20:25.189Z,99147.44
2022-09-03T20:22:38.780Z,99147.45
2022-09-03T20:24:58.680Z,99144.91
2022-09-03T20:27:15.285Z,99146.34
2022-09-03T20:29:38.201Z,99150.53
2022-09-03T20:31:56.195Z,99154.77
2022-09-03T20:34:16.855Z,99162.21
2022-09-03T20:36:34.246Z,99172.09
2022-09-03T20:39:10.344Z,99175.45
2022-09-03T20:41:23.408Z,99180.44
2022-09-03T20:43:49.741Z,99179.41
2022-09-03T20:46:13.498Z,99180.23
2022-09-03T20:48:23.655Z,99183.82
2022-09-03T20:50:42.117Z,99180.03
2022-09-03T20:52:58.508Z,99180.95
2022-09-03T20:55:11.268Z,99178.85
2022-09-03T20:57:23.567Z,99176.03
2022-09-03T20:59:39.351Z,99176.95
2022-09-03T21:01:51.902Z,99178.85
2022-09-03T21:04:12.229Z,99176.27
2022-09-03T21:06:29.808Z,99171.66
2022-09-03T21:08:49.554Z,99175.30
2022-09-03T21:10:58.110Z,99177.58
2022-09-03T21:13:10.978Z,99176.83
2022-09-03T21:15:24.929Z,99174.55
2022-09-03T21:17:45.956Z,99173.73
2022-09-03T21:20:02.296Z,99175.09
2022-09-03T21:22:20.902Z,99175.42
2022-09-03T21:24:31.029Z,99173.52
2022-09-03T21:26:39.936Z,99177.27
2022-09-03T21:28:58.590Z,99181.76
2022-09-03T21:31:10.657Z,99178.66
2022-09-03T21:33:23.655Z,99179.38
2022-09-03T21:35:31.187Z,99180.95
2022-09-03T21:37:41.783Z,99186.70
2022-09-03T21:39:51.849Z,99186.25
2022-09-03T21:42:03.195Z,99190.32
2022-09-03T21:44:14.409Z,99190.54
2022-09-03T21:46:26.108Z,99192.20
2022-09-03T21:48:35.495Z,99195.85
2022-09-03T21:50:49.890Z,99196.77
2022-09-03T21:53:00.107Z,99204.39
2022-09-03T21:55:22.370Z,99207.33
2022-09-03T21:57:34.534Z,99208.77
2022-09-03T22:00:02.672Z,99212.42
2022-09-03T22:02:23.913Z,99215.98
2022-09-03T22:04:28.857Z,99226.76
2022-09-03T22:06:41.510Z,99235.16
2022-09-03T22:08:55.295Z,99242.19
2022-09-03T22:11:10.691Z,99245.77
2022-09-03T22:13:22.062Z,99245.82
2022-09-03T22:15:27.935Z,99246.04
2022-09-03T22:17:40.436Z,99244.05
2022-09-03T22:19:45.306Z,99242.06
2022-09-03T22:21:56.445Z,99243.84
2022-09-03T22:24:12.926Z,99245.14
2022-09-03T22:26:23.955Z,99254.64
2022-09-03T22:28:38.561Z,99255.78
2022-09-03T22:30:54.183Z,99250.63
2022-09-03T22:33:07.621Z,99251.98
2022-09-03T22:35:36.569Z,99255.17
2022-09-03T22:37:55.596Z,99258.92
2022-09-03T22:40:09.349Z,99258.48
2022-09-03T22:42:44.928Z,99259.46
2022-09-03T22:45:17.982Z,99258.11
2022-09-03T22:47:37.457Z,99258.64
2022-09-03T22:49:51.523Z,99261.95
2022-09-03T22:52:10.201Z,99262.27
2022-09-03T22:54:29.406Z,99260.38
2022-09-03T22:56:38.110Z,99260.32
2022-09-03T22:58:49.283Z,99264.20
2022-09-03T23:00:59.053Z,99259.63
2022-09-03T23:03:11.868Z,99258.75
2022-09-03T23:05:31.477Z,99266.81
2022-09-03T23:07:49.706Z,99264.95
2022-09-03T23:09:57.420Z,99267.26
2022-09-03T23:12:06.471Z,99268.92
2022-09-03T23:14:15.583Z,99280.50
2022-09-03T23:16:29.459Z,99284.43
2022-09-03T23:18:36.216Z,99287.94
2022-09-03T23:20:43.315Z,99289.18
2022-09-03T23:22:52.575Z,99290.90
2022-09-03T23:25:02.752Z,99288.50
2022-09-03T23:27:14.382Z,99286.38
2022-09-03T23:29:25.195Z,99284.52
2022-09-03T23:31:30.461Z,99283.42
2022-09-03T23:33:35.276Z,99284.98
2022-09-03T23:35:54.378Z,99284.58
2022-09-03T23:38:11.683Z,99285.48
2022-09-03T23:40:27.956Z,99284.83
2022-09-03T23:42:45.306Z,99284.66
2022-09-03T23:45:07.674Z,99277.02
2022-09-03T23:47:24.137Z,99281.88
2022-09-03T23:49:43.537Z,99277.80
2022-09-03T23:52:02.809Z,99277.56
2022-09-03T23:54:17.883Z,99279.56
2022-09-03T23:56:52.303Z,99278.39
2022-09-03T23:59:07.383Z,99277.45
